sensor_id;sensor_type;location;lat;lon;timestamp;P1;durP1;ratioP1;P2;durP2;ratioP2
1699;SDS011;847;48.058;7.810;2023-04-24T00:01:00;1.30;;;0.70;;
1699;SDS011;847;48.058;7.810;2023-04-24T00:03:27;0.80;;;0.70;;
1699;SDS011;847;48.058;7.810;2023-04-24T00:05:55;0.80;;;0.70;;
1699;SDS011;847;48.058;7.810;2023-04-24T00:08:23;0.80;;;0.80;;
1699;SDS011;847;48.058;7.810;2023-04-24T00:10:50;0.60;;;0.60;;
1699;SDS011;847;48.058;7.810;2023-04-24T00:13:18;0.60;;;0.60;;
1699;SDS011;847;48.058;7.810;2023-04-24T00:15:44;2.23;;;0.70;;
1699;SDS011;847;48.058;7.810;2023-04-24T00:18:11;0.80;;;0.60;;
1699;SDS011;847;48.058;7.810;2023-04-24T00:20:38;0.90;;;0.70;;
1699;SDS011;847;48.058;7.810;2023-04-24T00:23:07;0.80;;;0.77;;
1699;SDS011;847;48.058;7.810;2023-04-24T00:25:33;1.10;;;0.73;;
1699;SDS011;847;48.058;7.810;2023-04-24T00:28:00;1.13;;;0.90;;
1699;SDS011;847;48.058;7.810;2023-04-24T00:30:27;1.43;;;0.83;;
1699;SDS011;847;48.058;7.810;2023-04-24T00:32:54;0.50;;;0.50;;
1699;SDS011;847;48.058;7.810;2023-04-24T00:35:21;0.77;;;0.60;;
1699;SDS011;847;48.058;7.810;2023-04-24T00:37:48;5.90;;;4.70;;
1699;SDS011;847;48.058;7.810;2023-04-24T00:40:16;1.10;;;1.00;;
1699;SDS011;847;48.058;7.810;2023-04-24T00:42:43;1.80;;;0.80;;
1699;SDS011;847;48.058;7.810;2023-04-24T00:45:10;1.07;;;0.70;;
1699;SDS011;847;48.058;7.810;2023-04-24T00:47:37;0.90;;;0.90;;
1699;SDS011;847;48.058;7.810;2023-04-24T00:50:06;3.60;;;0.70;;
1699;SDS011;847;48.058;7.810;2023-04-24T00:52:33;1.77;;;0.90;;
1699;SDS011;847;48.058;7.810;2023-04-24T00:55:00;2.10;;;0.83;;
1699;SDS011;847;48.058;7.810;2023-04-24T00:57:29;0.90;;;0.70;;
1699;SDS011;847;48.058;7.810;2023-04-24T00:59:56;3.57;;;0.90;;
1699;SDS011;847;48.058;7.810;2023-04-24T01:02:24;1.33;;;0.80;;
1699;SDS011;847;48.058;7.810;2023-04-24T01:04:51;2.13;;;0.70;;
1699;SDS011;847;48.058;7.810;2023-04-24T01:07:19;0.80;;;0.80;;
1699;SDS011;847;48.058;7.810;2023-04-24T01:09:46;3.63;;;1.00;;
1699;SDS011;847;48.058;7.810;2023-04-24T01:12:16;0.80;;;0.60;;
1699;SDS011;847;48.058;7.810;2023-04-24T01:14:44;0.73;;;0.50;;
1699;SDS011;847;48.058;7.810;2023-04-24T01:17:11;1.13;;;0.70;;
1699;SDS011;847;48.058;7.810;2023-04-24T01:19:38;0.70;;;0.60;;
1699;SDS011;847;48.058;7.810;2023-04-24T01:22:09;0.90;;;0.63;;
1699;SDS011;847;48.058;7.810;2023-04-24T01:24:37;0.90;;;0.67;;
1699;SDS011;847;48.058;7.810;2023-04-24T01:27:04;0.90;;;0.70;;
1699;SDS011;847;48.058;7.810;2023-04-24T01:29:31;2.90;;;0.90;;
1699;SDS011;847;48.058;7.810;2023-04-24T01:31:58;0.97;;;0.60;;
1699;SDS011;847;48.058;7.810;2023-04-24T01:34:25;1.87;;;0.57;;
1699;SDS011;847;48.058;7.810;2023-04-24T01:36:52;0.70;;;0.50;;
1699;SDS011;847;48.058;7.810;2023-04-24T01:39:22;1.40;;;0.60;;
1699;SDS011;847;48.058;7.810;2023-04-24T01:41:50;1.30;;;0.73;;
1699;SDS011;847;48.058;7.810;2023-04-24T01:44:17;2.33;;;0.53;;
1699;SDS011;847;48.058;7.810;2023-04-24T01:46:44;1.90;;;0.70;;
1699;SDS011;847;48.058;7.810;2023-04-24T01:49:11;1.87;;;0.73;;
1699;SDS011;847;48.058;7.810;2023-04-24T01:51:38;2.83;;;0.73;;
1699;SDS011;847;48.058;7.810;2023-04-24T01:54:05;1.10;;;0.70;;
1699;SDS011;847;48.058;7.810;2023-04-24T01:56:34;1.70;;;0.60;;
1699;SDS011;847;48.058;7.810;2023-04-24T01:59:01;1.67;;;0.80;;
1699;SDS011;847;48.058;7.810;2023-04-24T02:01:32;3.03;;;0.60;;
1699;SDS011;847;48.058;7.810;2023-04-24T02:04:00;0.70;;;0.70;;
1699;SDS011;847;48.058;7.810;2023-04-24T02:06:27;1.30;;;0.70;;
1699;SDS011;847;48.058;7.810;2023-04-24T02:08:56;2.13;;;0.90;;
1699;SDS011;847;48.058;7.810;2023-04-24T02:11:23;1.00;;;0.80;;
1699;SDS011;847;48.058;7.810;2023-04-24T02:13:51;1.60;;;0.70;;
1699;SDS011;847;48.058;7.810;2023-04-24T02:16:17;1.53;;;0.60;;
1699;SDS011;847;48.058;7.810;2023-04-24T02:18:47;1.13;;;0.70;;
1699;SDS011;847;48.058;7.810;2023-04-24T02:21:13;1.40;;;0.70;;
1699;SDS011;847;48.058;7.810;2023-04-24T02:23:40;2.27;;;0.90;;
1699;SDS011;847;48.058;7.810;2023-04-24T02:26:07;3.20;;;1.10;;
1699;SDS011;847;48.058;7.810;2023-04-24T02:28:34;1.50;;;0.90;;
1699;SDS011;847;48.058;7.810;2023-04-24T02:31:02;1.27;;;0.87;;
1699;SDS011;847;48.058;7.810;2023-04-24T02:33:30;0.90;;;0.90;;
1699;SDS011;847;48.058;7.810;2023-04-24T02:35:56;1.33;;;0.97;;
1699;SDS011;847;48.058;7.810;2023-04-24T02:38:23;3.13;;;0.70;;
1699;SDS011;847;48.058;7.810;2023-04-24T02:40:50;2.00;;;0.90;;
1699;SDS011;847;48.058;7.810;2023-04-24T02:43:17;1.20;;;0.90;;
1699;SDS011;847;48.058;7.810;2023-04-24T02:45:44;2.30;;;0.70;;
1699;SDS011;847;48.058;7.810;2023-04-24T02:48:12;4.00;;;1.33;;
1699;SDS011;847;48.058;7.810;2023-04-24T02:50:38;1.70;;;0.73;;
1699;SDS011;847;48.058;7.810;2023-04-24T02:53:05;1.43;;;0.70;;
1699;SDS011;847;48.058;7.810;2023-04-24T02:55:32;1.83;;;0.60;;
1699;SDS011;847;48.058;7.810;2023-04-24T02:57:59;1.83;;;0.80;;
1699;SDS011;847;48.058;7.810;2023-04-24T03:00:26;2.00;;;0.73;;
1699;SDS011;847;48.058;7.810;2023-04-24T03:02:52;1.43;;;1.20;;
1699;SDS011;847;48.058;7.810;2023-04-24T03:05:21;1.33;;;1.03;;
1699;SDS011;847;48.058;7.810;2023-04-24T03:07:48;1.30;;;0.70;;
1699;SDS011;847;48.058;7.810;2023-04-24T03:10:14;2.87;;;1.07;;
1699;SDS011;847;48.058;7.810;2023-04-24T03:12:41;1.57;;;0.90;;
1699;SDS011;847;48.058;7.810;2023-04-24T03:15:08;1.00;;;0.60;;
1699;SDS011;847;48.058;7.810;2023-04-24T03:17:35;3.17;;;0.90;;
1699;SDS011;847;48.058;7.810;2023-04-24T03:20:03;1.93;;;1.00;;
1699;SDS011;847;48.058;7.810;2023-04-24T03:22:32;4.20;;;0.90;;
1699;SDS011;847;48.058;7.810;2023-04-24T03:24:59;1.70;;;0.83;;
1699;SDS011;847;48.058;7.810;2023-04-24T03:27:26;1.77;;;0.80;;
1699;SDS011;847;48.058;7.810;2023-04-24T03:29:53;0.97;;;0.70;;
1699;SDS011;847;48.058;7.810;2023-04-24T03:32:20;2.20;;;1.13;;
1699;SDS011;847;48.058;7.810;2023-04-24T03:34:47;1.73;;;1.00;;
1699;SDS011;847;48.058;7.810;2023-04-24T03:37:14;2.37;;;0.77;;
1699;SDS011;847;48.058;7.810;2023-04-24T03:39:43;4.60;;;0.97;;
1699;SDS011;847;48.058;7.810;2023-04-24T03:42:10;2.43;;;0.90;;
1699;SDS011;847;48.058;7.810;2023-04-24T03:44:37;2.73;;;0.80;;
1699;SDS011;847;48.058;7.810;2023-04-24T03:47:03;2.00;;;0.70;;
1699;SDS011;847;48.058;7.810;2023-04-24T03:49:30;2.13;;;1.00;;
1699;SDS011;847;48.058;7.810;2023-04-24T03:51:57;2.60;;;0.87;;
1699;SDS011;847;48.058;7.810;2023-04-24T03:54:24;2.07;;;1.73;;
1699;SDS011;847;48.058;7.810;2023-04-24T03:56:52;1.90;;;1.03;;
1699;SDS011;847;48.058;7.810;2023-04-24T03:59:19;2.20;;;1.00;;
1699;SDS011;847;48.058;7.810;2023-04-24T04:01:46;2.13;;;1.20;;
1699;SDS011;847;48.058;7.810;2023-04-24T04:04:12;1.60;;;1.00;;
1699;SDS011;847;48.058;7.810;2023-04-24T04:06:39;1.90;;;1.07;;
1699;SDS011;847;48.058;7.810;2023-04-24T04:09:06;1.60;;;0.80;;
1699;SDS011;847;48.058;7.810;2023-04-24T04:11:33;2.03;;;1.10;;
1699;SDS011;847;48.058;7.810;2023-04-24T04:14:02;1.77;;;1.10;;
1699;SDS011;847;48.058;7.810;2023-04-24T04:16:28;1.37;;;1.03;;
1699;SDS011;847;48.058;7.810;2023-04-24T04:18:55;1.30;;;1.10;;
1699;SDS011;847;48.058;7.810;2023-04-24T04:21:22;1.13;;;0.90;;
1699;SDS011;847;48.058;7.810;2023-04-24T04:23:49;1.70;;;0.80;;
1699;SDS011;847;48.058;7.810;2023-04-24T04:26:15;3.10;;;1.50;;
1699;SDS011;847;48.058;7.810;2023-04-24T04:28:44;1.20;;;1.07;;
1699;SDS011;847;48.058;7.810;2023-04-24T04:31:14;3.97;;;1.60;;
1699;SDS011;847;48.058;7.810;2023-04-24T04:33:40;4.20;;;1.57;;
1699;SDS011;847;48.058;7.810;2023-04-24T04:36:07;3.23;;;1.50;;
1699;SDS011;847;48.058;7.810;2023-04-24T04:38:34;1.40;;;1.30;;
1699;SDS011;847;48.058;7.810;2023-04-24T04:41:02;2.67;;;1.47;;
1699;SDS011;847;48.058;7.810;2023-04-24T04:43:28;2.70;;;1.50;;
1699;SDS011;847;48.058;7.810;2023-04-24T04:45:55;2.60;;;1.87;;
1699;SDS011;847;48.058;7.810;2023-04-24T04:48:25;4.83;;;1.63;;
1699;SDS011;847;48.058;7.810;2023-04-24T04:50:52;5.63;;;2.40;;
1699;SDS011;847;48.058;7.810;2023-04-24T04:53:19;4.83;;;2.13;;
1699;SDS011;847;48.058;7.810;2023-04-24T04:55:46;2.60;;;1.47;;
1699;SDS011;847;48.058;7.810;2023-04-24T04:58:13;4.83;;;1.80;;
1699;SDS011;847;48.058;7.810;2023-04-24T05:00:40;2.03;;;1.27;;
1699;SDS011;847;48.058;7.810;2023-04-24T05:03:06;3.20;;;1.77;;
1699;SDS011;847;48.058;7.810;2023-04-24T05:05:34;3.60;;;1.90;;
1699;SDS011;847;48.058;7.810;2023-04-24T05:08:05;1.70;;;1.60;;
1699;SDS011;847;48.058;7.810;2023-04-24T05:10:32;2.60;;;1.50;;
1699;SDS011;847;48.058;7.810;2023-04-24T05:12:59;3.77;;;1.50;;
1699;SDS011;847;48.058;7.810;2023-04-24T05:15:26;1.60;;;1.27;;
1699;SDS011;847;48.058;7.810;2023-04-24T05:17:52;3.37;;;1.50;;
1699;SDS011;847;48.058;7.810;2023-04-24T05:20:19;5.73;;;2.03;;
1699;SDS011;847;48.058;7.810;2023-04-24T05:22:47;1.67;;;1.57;;
1699;SDS011;847;48.058;7.810;2023-04-24T05:25:14;2.20;;;1.40;;
1699;SDS011;847;48.058;7.810;2023-04-24T05:27:41;3.37;;;1.50;;
1699;SDS011;847;48.058;7.810;2023-04-24T05:30:08;8.33;;;2.93;;
1699;SDS011;847;48.058;7.810;2023-04-24T05:32:35;1.97;;;1.77;;
1699;SDS011;847;48.058;7.810;2023-04-24T05:35:02;4.73;;;2.30;;
1699;SDS011;847;48.058;7.810;2023-04-24T05:37:29;2.57;;;1.50;;
1699;SDS011;847;48.058;7.810;2023-04-24T05:39:57;2.97;;;2.00;;
1699;SDS011;847;48.058;7.810;2023-04-24T05:42:24;2.80;;;2.40;;
1699;SDS011;847;48.058;7.810;2023-04-24T05:44:51;5.07;;;2.77;;
1699;SDS011;847;48.058;7.810;2023-04-24T05:47:19;3.43;;;1.90;;
1699;SDS011;847;48.058;7.810;2023-04-24T05:49:46;3.43;;;2.40;;
1699;SDS011;847;48.058;7.810;2023-04-24T05:52:13;2.70;;;2.00;;
1699;SDS011;847;48.058;7.810;2023-04-24T05:54:40;4.97;;;1.87;;
1699;SDS011;847;48.058;7.810;2023-04-24T05:57:08;3.17;;;2.37;;
1699;SDS011;847;48.058;7.810;2023-04-24T05:59:36;3.33;;;2.10;;
1699;SDS011;847;48.058;7.810;2023-04-24T06:02:04;4.50;;;2.63;;
1699;SDS011;847;48.058;7.810;2023-04-24T06:04:31;4.70;;;2.70;;
1699;SDS011;847;48.058;7.810;2023-04-24T06:06:58;4.23;;;2.50;;
1699;SDS011;847;48.058;7.810;2023-04-24T06:09:25;3.43;;;2.40;;
1699;SDS011;847;48.058;7.810;2023-04-24T06:11:52;3.23;;;2.47;;
1699;SDS011;847;48.058;7.810;2023-04-24T06:14:21;3.20;;;2.40;;
1699;SDS011;847;48.058;7.810;2023-04-24T06:16:47;3.87;;;3.03;;
1699;SDS011;847;48.058;7.810;2023-04-24T06:19:14;3.70;;;2.50;;
1699;SDS011;847;48.058;7.810;2023-04-24T06:21:41;2.60;;;2.33;;
1699;SDS011;847;48.058;7.810;2023-04-24T06:24:08;2.43;;;2.23;;
1699;SDS011;847;48.058;7.810;2023-04-24T06:26:35;6.40;;;2.70;;
1699;SDS011;847;48.058;7.810;2023-04-24T06:29:01;3.47;;;3.17;;
1699;SDS011;847;48.058;7.810;2023-04-24T06:31:30;2.77;;;2.57;;
1699;SDS011;847;48.058;7.810;2023-04-24T06:34:00;3.23;;;2.63;;
1699;SDS011;847;48.058;7.810;2023-04-24T06:36:26;2.20;;;2.00;;
1699;SDS011;847;48.058;7.810;2023-04-24T06:38:53;2.90;;;2.70;;
1699;SDS011;847;48.058;7.810;2023-04-24T06:41:20;2.87;;;2.57;;
1699;SDS011;847;48.058;7.810;2023-04-24T06:43:47;4.53;;;3.30;;
1699;SDS011;847;48.058;7.810;2023-04-24T06:46:14;3.43;;;3.13;;
1699;SDS011;847;48.058;7.810;2023-04-24T06:48:42;5.67;;;3.20;;
1699;SDS011;847;48.058;7.810;2023-04-24T06:51:09;3.80;;;2.80;;
1699;SDS011;847;48.058;7.810;2023-04-24T06:53:36;4.37;;;3.00;;
1699;SDS011;847;48.058;7.810;2023-04-24T06:56:03;3.93;;;2.40;;
1699;SDS011;847;48.058;7.810;2023-04-24T06:58:30;3.87;;;2.60;;
1699;SDS011;847;48.058;7.810;2023-04-24T07:00:57;3.57;;;2.57;;
1699;SDS011;847;48.058;7.810;2023-04-24T07:03:23;3.77;;;2.80;;
1699;SDS011;847;48.058;7.810;2023-04-24T07:05:51;3.30;;;2.73;;
1699;SDS011;847;48.058;7.810;2023-04-24T07:08:18;3.63;;;2.50;;
1699;SDS011;847;48.058;7.810;2023-04-24T07:10:46;3.07;;;2.80;;
1699;SDS011;847;48.058;7.810;2023-04-24T07:13:13;2.53;;;2.30;;
1699;SDS011;847;48.058;7.810;2023-04-24T07:15:39;2.93;;;2.47;;
1699;SDS011;847;48.058;7.810;2023-04-24T07:18:06;5.93;;;5.00;;
1699;SDS011;847;48.058;7.810;2023-04-24T07:20:33;7.20;;;6.50;;
1699;SDS011;847;48.058;7.810;2023-04-24T07:23:01;4.50;;;4.10;;
1699;SDS011;847;48.058;7.810;2023-04-24T07:25:28;4.57;;;3.70;;
1699;SDS011;847;48.058;7.810;2023-04-24T07:27:56;3.90;;;3.60;;
1699;SDS011;847;48.058;7.810;2023-04-24T07:30:23;5.73;;;2.97;;
1699;SDS011;847;48.058;7.810;2023-04-24T07:32:50;2.47;;;2.27;;
1699;SDS011;847;48.058;7.810;2023-04-24T07:35:17;2.97;;;2.67;;
1699;SDS011;847;48.058;7.810;2023-04-24T07:37:45;8.23;;;6.27;;
1699;SDS011;847;48.058;7.810;2023-04-24T07:40:13;6.37;;;5.40;;
1699;SDS011;847;48.058;7.810;2023-04-24T07:42:39;5.80;;;5.03;;
1699;SDS011;847;48.058;7.810;2023-04-24T07:45:06;8.90;;;8.00;;
1699;SDS011;847;48.058;7.810;2023-04-24T07:47:33;12.47;;;8.87;;
1699;SDS011;847;48.058;7.810;2023-04-24T07:50:01;7.20;;;6.00;;
1699;SDS011;847;48.058;7.810;2023-04-24T07:52:28;7.00;;;6.13;;
1699;SDS011;847;48.058;7.810;2023-04-24T07:54:55;6.27;;;5.37;;
1699;SDS011;847;48.058;7.810;2023-04-24T07:57:25;5.97;;;5.07;;
1699;SDS011;847;48.058;7.810;2023-04-24T07:59:51;4.77;;;3.73;;
1699;SDS011;847;48.058;7.810;2023-04-24T08:02:18;3.63;;;2.63;;
1699;SDS011;847;48.058;7.810;2023-04-24T08:04:46;3.63;;;3.33;;
1699;SDS011;847;48.058;7.810;2023-04-24T08:07:13;4.40;;;3.27;;
1699;SDS011;847;48.058;7.810;2023-04-24T08:09:40;6.50;;;3.00;;
1699;SDS011;847;48.058;7.810;2023-04-24T08:12:07;3.23;;;2.40;;
1699;SDS011;847;48.058;7.810;2023-04-24T08:14:35;3.80;;;3.20;;
1699;SDS011;847;48.058;7.810;2023-04-24T08:17:02;3.77;;;2.23;;
1699;SDS011;847;48.058;7.810;2023-04-24T08:19:29;3.27;;;2.80;;
1699;SDS011;847;48.058;7.810;2023-04-24T08:21:56;2.33;;;2.13;;
1699;SDS011;847;48.058;7.810;2023-04-24T08:24:22;3.83;;;2.63;;
1699;SDS011;847;48.058;7.810;2023-04-24T08:26:50;2.43;;;2.13;;
1699;SDS011;847;48.058;7.810;2023-04-24T08:29:18;2.70;;;2.50;;
1699;SDS011;847;48.058;7.810;2023-04-24T08:31:47;2.13;;;1.93;;
1699;SDS011;847;48.058;7.810;2023-04-24T08:34:13;2.43;;;2.10;;
1699;SDS011;847;48.058;7.810;2023-04-24T08:36:40;2.10;;;1.90;;
1699;SDS011;847;48.058;7.810;2023-04-24T08:39:07;3.60;;;1.63;;
1699;SDS011;847;48.058;7.810;2023-04-24T08:41:34;2.80;;;1.70;;
1699;SDS011;847;48.058;7.810;2023-04-24T08:44:01;4.63;;;2.23;;
1699;SDS011;847;48.058;7.810;2023-04-24T08:46:28;2.87;;;2.23;;
1699;SDS011;847;48.058;7.810;2023-04-24T08:48:57;2.13;;;1.93;;
1699;SDS011;847;48.058;7.810;2023-04-24T08:51:25;1.90;;;1.80;;
1699;SDS011;847;48.058;7.810;2023-04-24T08:53:53;2.67;;;1.70;;
1699;SDS011;847;48.058;7.810;2023-04-24T08:56:21;3.20;;;2.03;;
1699;SDS011;847;48.058;7.810;2023-04-24T08:58:49;2.40;;;1.70;;
1699;SDS011;847;48.058;7.810;2023-04-24T09:01:17;2.23;;;1.90;;
1699;SDS011;847;48.058;7.810;2023-04-24T09:03:45;2.13;;;1.70;;
1699;SDS011;847;48.058;7.810;2023-04-24T09:06:16;3.57;;;1.60;;
1699;SDS011;847;48.058;7.810;2023-04-24T09:08:44;3.83;;;1.90;;
1699;SDS011;847;48.058;7.810;2023-04-24T09:11:13;1.47;;;1.37;;
1699;SDS011;847;48.058;7.810;2023-04-24T09:13:39;1.67;;;1.57;;
1699;SDS011;847;48.058;7.810;2023-04-24T09:16:07;2.70;;;1.70;;
1699;SDS011;847;48.058;7.810;2023-04-24T09:18:34;2.53;;;1.40;;
1699;SDS011;847;48.058;7.810;2023-04-24T09:21:01;3.43;;;1.70;;
1699;SDS011;847;48.058;7.810;2023-04-24T09:23:30;1.70;;;1.60;;
1699;SDS011;847;48.058;7.810;2023-04-24T09:25:58;2.97;;;1.90;;
1699;SDS011;847;48.058;7.810;2023-04-24T09:28:26;3.63;;;1.90;;
1699;SDS011;847;48.058;7.810;2023-04-24T09:31:05;1.63;;;1.53;;
1699;SDS011;847;48.058;7.810;2023-04-24T09:33:34;3.77;;;2.67;;
1699;SDS011;847;48.058;7.810;2023-04-24T09:36:01;1.77;;;1.53;;
1699;SDS011;847;48.058;7.810;2023-04-24T09:38:33;2.93;;;2.00;;
1699;SDS011;847;48.058;7.810;2023-04-24T09:41:01;1.73;;;1.50;;
1699;SDS011;847;48.058;7.810;2023-04-24T09:43:28;2.87;;;1.67;;
1699;SDS011;847;48.058;7.810;2023-04-24T09:45:56;2.77;;;1.50;;
1699;SDS011;847;48.058;7.810;2023-04-24T09:48:30;2.10;;;1.33;;
1699;SDS011;847;48.058;7.810;2023-04-24T09:50:57;2.90;;;1.63;;
1699;SDS011;847;48.058;7.810;2023-04-24T09:53:25;2.13;;;1.70;;
1699;SDS011;847;48.058;7.810;2023-04-24T09:55:54;2.63;;;1.20;;
1699;SDS011;847;48.058;7.810;2023-04-24T09:58:24;1.83;;;1.50;;
1699;SDS011;847;48.058;7.810;2023-04-24T10:00:53;1.63;;;1.20;;
1699;SDS011;847;48.058;7.810;2023-04-24T10:03:21;1.63;;;1.20;;
1699;SDS011;847;48.058;7.810;2023-04-24T10:05:52;2.30;;;1.03;;
1699;SDS011;847;48.058;7.810;2023-04-24T10:08:20;1.10;;;1.07;;
1699;SDS011;847;48.058;7.810;2023-04-24T10:10:47;1.57;;;1.20;;
1699;SDS011;847;48.058;7.810;2023-04-24T10:13:15;1.40;;;0.90;;
1699;SDS011;847;48.058;7.810;2023-04-24T10:15:42;3.00;;;1.43;;
1699;SDS011;847;48.058;7.810;2023-04-24T10:18:08;0.87;;;0.87;;
1699;SDS011;847;48.058;7.810;2023-04-24T10:20:37;1.53;;;0.80;;
1699;SDS011;847;48.058;7.810;2023-04-24T10:23:06;1.93;;;1.10;;
1699;SDS011;847;48.058;7.810;2023-04-24T10:25:34;1.03;;;0.90;;
1699;SDS011;847;48.058;7.810;2023-04-24T10:28:02;3.33;;;1.20;;
1699;SDS011;847;48.058;7.810;2023-04-24T10:30:31;1.03;;;0.80;;
1699;SDS011;847;48.058;7.810;2023-04-24T10:33:00;1.20;;;0.90;;
1699;SDS011;847;48.058;7.810;2023-04-24T10:35:27;1.60;;;0.80;;
1699;SDS011;847;48.058;7.810;2023-04-24T10:37:57;1.07;;;1.03;;
1699;SDS011;847;48.058;7.810;2023-04-24T10:40:27;1.10;;;1.00;;
1699;SDS011;847;48.058;7.810;2023-04-24T10:42:57;1.67;;;0.70;;
1699;SDS011;847;48.058;7.810;2023-04-24T10:45:24;1.03;;;0.67;;
1699;SDS011;847;48.058;7.810;2023-04-24T10:47:52;1.67;;;1.20;;
1699;SDS011;847;48.058;7.810;2023-04-24T10:50:23;2.00;;;0.93;;
1699;SDS011;847;48.058;7.810;2023-04-24T10:52:50;1.33;;;0.93;;
1699;SDS011;847;48.058;7.810;2023-04-24T10:58:08;1.37;;;1.27;;
1699;SDS011;847;48.058;7.810;2023-04-24T11:00:36;1.50;;;1.00;;
1699;SDS011;847;48.058;7.810;2023-04-24T11:03:06;1.30;;;1.20;;
1699;SDS011;847;48.058;7.810;2023-04-24T11:08:16;1.90;;;1.10;;
1699;SDS011;847;48.058;7.810;2023-04-24T11:10:54;1.20;;;1.10;;
1699;SDS011;847;48.058;7.810;2023-04-24T11:13:22;1.20;;;1.10;;
1699;SDS011;847;48.058;7.810;2023-04-24T11:18:41;2.00;;;1.37;;
1699;SDS011;847;48.058;7.810;2023-04-24T11:21:11;2.83;;;1.53;;
1699;SDS011;847;48.058;7.810;2023-04-24T11:23:38;1.43;;;1.33;;
1699;SDS011;847;48.058;7.810;2023-04-24T11:26:11;1.97;;;1.47;;
1699;SDS011;847;48.058;7.810;2023-04-24T11:28:44;2.90;;;1.50;;
1699;SDS011;847;48.058;7.810;2023-04-24T11:34:06;3.50;;;1.50;;
1699;SDS011;847;48.058;7.810;2023-04-24T11:36:37;1.50;;;1.40;;
1699;SDS011;847;48.058;7.810;2023-04-24T11:39:04;2.27;;;1.50;;
1699;SDS011;847;48.058;7.810;2023-04-24T11:41:31;1.53;;;1.43;;
1699;SDS011;847;48.058;7.810;2023-04-24T11:43:59;3.97;;;1.87;;
1699;SDS011;847;48.058;7.810;2023-04-24T11:46:27;2.43;;;1.37;;
1699;SDS011;847;48.058;7.810;2023-04-24T11:48:55;2.80;;;2.17;;
1699;SDS011;847;48.058;7.810;2023-04-24T11:51:23;1.30;;;1.20;;
1699;SDS011;847;48.058;7.810;2023-04-24T11:53:51;1.57;;;1.40;;
1699;SDS011;847;48.058;7.810;2023-04-24T11:56:18;1.90;;;1.10;;
1699;SDS011;847;48.058;7.810;2023-04-24T11:58:47;2.23;;;1.40;;
1699;SDS011;847;48.058;7.810;2023-04-24T12:01:14;1.43;;;1.33;;
1699;SDS011;847;48.058;7.810;2023-04-24T12:03:41;1.27;;;1.20;;
1699;SDS011;847;48.058;7.810;2023-04-24T12:06:11;1.50;;;1.40;;
1699;SDS011;847;48.058;7.810;2023-04-24T12:08:40;1.47;;;1.17;;
1699;SDS011;847;48.058;7.810;2023-04-24T12:11:07;2.03;;;1.23;;
1699;SDS011;847;48.058;7.810;2023-04-24T12:13:34;2.53;;;1.37;;
1699;SDS011;847;48.058;7.810;2023-04-24T12:16:02;2.20;;;1.03;;
1699;SDS011;847;48.058;7.810;2023-04-24T12:18:30;1.63;;;1.10;;
1699;SDS011;847;48.058;7.810;2023-04-24T12:23:44;1.20;;;1.10;;
1699;SDS011;847;48.058;7.810;2023-04-24T12:26:11;2.27;;;1.50;;
1699;SDS011;847;48.058;7.810;2023-04-24T12:28:38;1.40;;;1.00;;
1699;SDS011;847;48.058;7.810;2023-04-24T12:31:06;1.07;;;1.00;;
1699;SDS011;847;48.058;7.810;2023-04-24T12:33:33;2.03;;;1.20;;
1699;SDS011;847;48.058;7.810;2023-04-24T12:36:01;1.37;;;1.27;;
1699;SDS011;847;48.058;7.810;2023-04-24T12:38:28;1.60;;;1.10;;
1699;SDS011;847;48.058;7.810;2023-04-24T12:41:03;2.30;;;1.37;;
1699;SDS011;847;48.058;7.810;2023-04-24T12:43:30;1.50;;;1.40;;
1699;SDS011;847;48.058;7.810;2023-04-24T12:45:57;1.60;;;1.50;;
1699;SDS011;847;48.058;7.810;2023-04-24T12:48:25;1.30;;;1.20;;
1699;SDS011;847;48.058;7.810;2023-04-24T12:50:51;1.57;;;1.40;;
1699;SDS011;847;48.058;7.810;2023-04-24T12:53:18;2.53;;;1.47;;
1699;SDS011;847;48.058;7.810;2023-04-24T12:55:45;1.70;;;1.50;;
1699;SDS011;847;48.058;7.810;2023-04-24T12:58:18;1.50;;;1.40;;
1699;SDS011;847;48.058;7.810;2023-04-24T13:00:46;1.33;;;1.20;;
1699;SDS011;847;48.058;7.810;2023-04-24T13:03:13;1.57;;;1.47;;
1699;SDS011;847;48.058;7.810;2023-04-24T13:05:41;1.70;;;1.30;;
1699;SDS011;847;48.058;7.810;2023-04-24T13:08:08;1.87;;;1.20;;
1699;SDS011;847;48.058;7.810;2023-04-24T13:10:35;1.93;;;1.70;;
1699;SDS011;847;48.058;7.810;2023-04-24T13:13:02;1.53;;;1.43;;
1699;SDS011;847;48.058;7.810;2023-04-24T13:15:30;1.80;;;1.20;;
1699;SDS011;847;48.058;7.810;2023-04-24T13:17:57;1.47;;;1.20;;
1699;SDS011;847;48.058;7.810;2023-04-24T13:20:24;2.90;;;1.70;;
1699;SDS011;847;48.058;7.810;2023-04-24T13:22:51;2.67;;;1.70;;
1699;SDS011;847;48.058;7.810;2023-04-24T13:25:18;1.93;;;1.43;;
1699;SDS011;847;48.058;7.810;2023-04-24T13:27:45;1.60;;;1.50;;
1699;SDS011;847;48.058;7.810;2023-04-24T13:30:12;1.60;;;1.50;;
1699;SDS011;847;48.058;7.810;2023-04-24T13:32:40;1.97;;;1.87;;
1699;SDS011;847;48.058;7.810;2023-04-24T13:35:07;1.70;;;1.50;;
1699;SDS011;847;48.058;7.810;2023-04-24T13:37:34;2.03;;;1.27;;
1699;SDS011;847;48.058;7.810;2023-04-24T13:40:01;2.97;;;1.40;;
1699;SDS011;847;48.058;7.810;2023-04-24T13:42:30;3.47;;;1.70;;
1699;SDS011;847;48.058;7.810;2023-04-24T13:44:57;3.63;;;1.83;;
1699;SDS011;847;48.058;7.810;2023-04-24T13:47:24;1.97;;;1.77;;
1699;SDS011;847;48.058;7.810;2023-04-24T13:49:52;3.70;;;1.90;;
1699;SDS011;847;48.058;7.810;2023-04-24T13:52:19;1.67;;;1.47;;
1699;SDS011;847;48.058;7.810;2023-04-24T13:54:46;2.90;;;2.40;;
1699;SDS011;847;48.058;7.810;2023-04-24T13:57:13;3.80;;;2.03;;
1699;SDS011;847;48.058;7.810;2023-04-24T13:59:41;2.93;;;1.60;;
1699;SDS011;847;48.058;7.810;2023-04-24T14:02:08;1.30;;;1.20;;
1699;SDS011;847;48.058;7.810;2023-04-24T14:04:34;3.77;;;1.60;;
1699;SDS011;847;48.058;7.810;2023-04-24T14:07:02;2.67;;;1.70;;
1699;SDS011;847;48.058;7.810;2023-04-24T14:09:29;3.03;;;1.80;;
1699;SDS011;847;48.058;7.810;2023-04-24T14:11:56;4.03;;;1.90;;
1699;SDS011;847;48.058;7.810;2023-04-24T14:14:23;2.47;;;1.90;;
1699;SDS011;847;48.058;7.810;2023-04-24T14:16:49;2.47;;;2.30;;
1699;SDS011;847;48.058;7.810;2023-04-24T14:19:16;3.33;;;1.90;;
1699;SDS011;847;48.058;7.810;2023-04-24T14:21:43;3.60;;;1.87;;
1699;SDS011;847;48.058;7.810;2023-04-24T14:24:11;2.03;;;1.80;;
1699;SDS011;847;48.058;7.810;2023-04-24T14:26:38;1.90;;;1.80;;
1699;SDS011;847;48.058;7.810;2023-04-24T14:29:05;4.40;;;1.80;;
1699;SDS011;847;48.058;7.810;2023-04-24T14:31:31;1.50;;;1.40;;
1699;SDS011;847;48.058;7.810;2023-04-24T14:33:58;1.63;;;1.53;;
1699;SDS011;847;48.058;7.810;2023-04-24T14:36:25;2.47;;;1.60;;
1699;SDS011;847;48.058;7.810;2023-04-24T14:38:52;1.80;;;1.70;;
1699;SDS011;847;48.058;7.810;2023-04-24T14:41:20;2.13;;;1.70;;
1699;SDS011;847;48.058;7.810;2023-04-24T14:43:46;4.37;;;1.70;;
1699;SDS011;847;48.058;7.810;2023-04-24T14:46:13;1.50;;;1.40;;
1699;SDS011;847;48.058;7.810;2023-04-24T14:48:41;3.13;;;2.03;;
1699;SDS011;847;48.058;7.810;2023-04-24T14:51:08;1.67;;;1.30;;
1699;SDS011;847;48.058;7.810;2023-04-24T14:53:34;2.00;;;1.40;;
1699;SDS011;847;48.058;7.810;2023-04-24T14:56:01;1.60;;;1.50;;
1699;SDS011;847;48.058;7.810;2023-04-24T14:58:29;3.43;;;1.97;;
1699;SDS011;847;48.058;7.810;2023-04-24T15:00:56;1.83;;;1.50;;
1699;SDS011;847;48.058;7.810;2023-04-24T15:03:23;1.43;;;1.33;;
1699;SDS011;847;48.058;7.810;2023-04-24T15:05:51;2.53;;;1.57;;
1699;SDS011;847;48.058;7.810;2023-04-24T15:08:18;2.90;;;1.50;;
1699;SDS011;847;48.058;7.810;2023-04-24T15:10:45;1.83;;;1.73;;
1699;SDS011;847;48.058;7.810;2023-04-24T15:13:12;2.10;;;1.90;;
1699;SDS011;847;48.058;7.810;2023-04-24T15:15:40;2.17;;;1.50;;
1699;SDS011;847;48.058;7.810;2023-04-24T15:18:07;2.53;;;1.93;;
1699;SDS011;847;48.058;7.810;2023-04-24T15:20:36;3.80;;;2.10;;
1699;SDS011;847;48.058;7.810;2023-04-24T15:23:04;2.17;;;1.50;;
1699;SDS011;847;48.058;7.810;2023-04-24T15:25:31;2.43;;;2.07;;
1699;SDS011;847;48.058;7.810;2023-04-24T15:27:57;2.00;;;1.43;;
1699;SDS011;847;48.058;7.810;2023-04-24T15:30:25;2.43;;;2.23;;
1699;SDS011;847;48.058;7.810;2023-04-24T15:32:53;2.37;;;1.60;;
1699;SDS011;847;48.058;7.810;2023-04-24T15:35:20;2.60;;;1.97;;
1699;SDS011;847;48.058;7.810;2023-04-24T15:37:47;3.80;;;1.73;;
1699;SDS011;847;48.058;7.810;2023-04-24T15:40:13;2.30;;;1.83;;
1699;SDS011;847;48.058;7.810;2023-04-24T15:42:41;2.47;;;1.90;;
1699;SDS011;847;48.058;7.810;2023-04-24T15:45:09;1.73;;;1.53;;